createdAt,value
2019-05-22T00:01:11.105Z,4.90
2019-05-22T00:03:48.282Z,4.27
2019-05-22T00:06:22.884Z,5.15
2019-05-22T00:08:52.897Z,5.30
2019-05-22T00:11:25.079Z,5.22
2019-05-22T00:13:55.416Z,5.30
2019-05-22T00:16:25.192Z,4.90
2019-05-22T00:18:56.148Z,6.10
2019-05-22T00:21:25.837Z,6.20
2019-05-22T00:23:56.876Z,7.90
2019-05-22T00:26:28.572Z,7.37
2019-05-22T00:28:59.361Z,8.33
2019-05-22T00:31:30.179Z,8.93
2019-05-22T00:34:00.179Z,10.30
2019-05-22T00:36:31.551Z,9.93
2019-05-22T00:39:01.658Z,11.10
2019-05-22T00:41:35.001Z,11.30
2019-05-22T00:44:06.318Z,11.10
2019-05-22T00:46:36.628Z,12.53
2019-05-22T00:49:08.474Z,11.88
2019-05-22T00:52:04.157Z,12.13
2019-05-22T00:54:47.478Z,12.63
2019-05-22T00:57:36.587Z,12.40
2019-05-22T01:00:28.312Z,12.50
2019-05-22T01:02:59.532Z,12.90
2019-05-22T01:05:35.598Z,12.73
2019-05-22T01:08:06.924Z,13.03
2019-05-22T01:10:38.505Z,12.57
2019-05-22T01:13:09.470Z,13.00
2019-05-22T01:15:40.768Z,13.33
2019-05-22T01:18:31.105Z,14.58
2019-05-22T01:21:03.571Z,14.43
2019-05-22T01:23:34.825Z,14.00
2019-05-22T01:26:06.185Z,13.70
2019-05-22T01:28:37.355Z,14.07
2019-05-22T01:31:27.110Z,13.90
2019-05-22T01:34:05.562Z,14.97
2019-05-22T01:36:54.243Z,13.00
2019-05-22T01:39:56.373Z,13.20
2019-05-22T01:42:34.901Z,14.20
2019-05-22T01:45:07.066Z,13.57
2019-05-22T01:47:43.920Z,12.60
2019-05-22T01:50:18.352Z,14.27
2019-05-22T01:52:53.112Z,14.40
2019-05-22T01:55:23.727Z,14.40
2019-05-22T01:57:53.987Z,14.10
2019-05-22T02:00:24.382Z,13.10
2019-05-22T02:02:54.370Z,15.03
2019-05-22T02:05:25.340Z,14.50
2019-05-22T02:07:56.601Z,13.87
2019-05-22T02:10:30.348Z,13.77
2019-05-22T02:13:03.753Z,13.37
2019-05-22T02:15:35.029Z,14.68
2019-05-22T02:18:10.743Z,13.40
2019-05-22T02:20:45.000Z,14.07
2019-05-22T02:23:17.022Z,14.13
2019-05-22T02:25:47.237Z,15.60
2019-05-22T02:28:19.084Z,16.23
2019-05-22T02:30:52.842Z,15.43
2019-05-22T02:33:25.243Z,15.70
2019-05-22T02:35:55.405Z,16.23
2019-05-22T02:38:29.308Z,16.90
2019-05-22T02:40:59.730Z,15.97
2019-05-22T02:43:31.335Z,17.17
2019-05-22T02:46:02.022Z,18.13
2019-05-22T02:48:32.941Z,19.37
2019-05-22T02:51:02.611Z,16.80
2019-05-22T02:53:35.477Z,17.50
2019-05-22T02:56:08.892Z,19.80
2019-05-22T02:58:40.775Z,19.27
2019-05-22T03:01:13.973Z,18.57
2019-05-22T03:03:44.639Z,19.73
2019-05-22T03:06:14.179Z,18.65
2019-05-22T03:09:32.854Z,19.40
2019-05-22T03:12:11.226Z,19.60
2019-05-22T03:14:41.905Z,19.80
2019-05-22T03:17:31.156Z,22.23
2019-05-22T03:20:16.974Z,19.97
2019-05-22T03:22:58.946Z,19.33
2019-05-22T03:25:34.555Z,19.60
2019-05-22T03:28:07.292Z,19.40
2019-05-22T03:30:46.346Z,19.30
2019-05-22T03:33:17.877Z,22.35
2019-05-22T03:35:51.216Z,20.40
2019-05-22T03:38:23.447Z,20.70
2019-05-22T03:40:54.930Z,20.43
2019-05-22T03:43:28.321Z,20.47
2019-05-22T03:46:00.701Z,21.10
2019-05-22T03:48:35.415Z,20.35
2019-05-22T03:51:11.365Z,19.70
2019-05-22T03:53:42.857Z,19.47
2019-05-22T03:56:15.210Z,21.03
2019-05-22T03:58:47.619Z,18.57
2019-05-22T04:01:19.440Z,20.37
2019-05-22T04:03:51.692Z,18.77
2019-05-22T04:06:22.178Z,19.25
2019-05-22T04:08:55.045Z,20.43
2019-05-22T04:11:26.882Z,22.23
2019-05-22T04:13:57.595Z,23.70
2019-05-22T04:16:30.056Z,23.83
2019-05-22T04:19:00.711Z,25.23
2019-05-22T04:21:36.079Z,27.57
2019-05-22T04:24:06.188Z,29.47
2019-05-22T04:26:35.802Z,28.20
2019-05-22T04:29:06.314Z,29.80
2019-05-22T04:32:13.518Z,30.37
2019-05-22T04:34:43.298Z,33.70
2019-05-22T04:37:15.869Z,32.80
2019-05-22T04:39:48.852Z,33.83
2019-05-22T04:42:20.971Z,33.20
2019-05-22T04:45:12.264Z,31.60
2019-05-22T04:47:55.155Z,30.43
2019-05-22T04:50:27.562Z,28.87
2019-05-22T04:52:59.224Z,30.23
2019-05-22T04:55:30.173Z,26.00
2019-05-22T04:58:02.939Z,25.50
2019-05-22T05:00:35.851Z,24.37
2019-05-22T05:03:06.720Z,24.30
2019-05-22T05:05:39.579Z,25.12
2019-05-22T05:08:09.814Z,24.50
2019-05-22T05:10:41.316Z,24.07
2019-05-22T05:13:11.270Z,27.27
2019-05-22T05:15:41.457Z,25.80
2019-05-22T05:18:11.326Z,26.63
2019-05-22T05:20:40.818Z,26.03
2019-05-22T05:23:12.055Z,29.72
2019-05-22T05:25:43.784Z,29.70
2019-05-22T05:28:15.414Z,26.73
2019-05-22T05:30:45.734Z,28.80
2019-05-22T05:33:17.113Z,30.72
2019-05-22T05:35:54.045Z,30.10
2019-05-22T05:38:34.285Z,32.38
2019-05-22T05:41:03.884Z,32.80
2019-05-22T05:43:34.193Z,30.70
2019-05-22T05:46:06.608Z,34.33
2019-05-22T05:48:37.121Z,33.60
2019-05-22T05:51:39.246Z,34.60
2019-05-22T05:54:20.429Z,36.00
2019-05-22T05:56:52.580Z,34.63
2019-05-22T05:59:24.350Z,37.33
2019-05-22T06:01:55.618Z,36.37
2019-05-22T06:04:35.179Z,36.30
2019-05-22T06:07:24.820Z,35.30
2019-05-22T06:10:23.829Z,37.30
2019-05-22T06:12:53.555Z,38.90
2019-05-22T06:15:44.225Z,37.80
2019-05-22T06:18:40.410Z,36.83
2019-05-22T06:21:10.865Z,35.17
2019-05-22T06:24:28.567Z,34.50
2019-05-22T06:27:21.886Z,34.60
2019-05-22T06:29:57.856Z,35.97
2019-05-22T06:33:03.888Z,34.97
2019-05-22T06:35:41.692Z,33.97
2019-05-22T06:38:40.312Z,34.73
2019-05-22T06:41:10.381Z,34.53
2019-05-22T06:44:17.121Z,34.13
2019-05-22T06:46:48.859Z,35.10
2019-05-22T06:49:47.697Z,32.40
2019-05-22T06:52:19.475Z,34.25
2019-05-22T06:54:55.048Z,30.90
2019-05-22T06:57:29.673Z,34.13
2019-05-22T07:00:13.445Z,33.13
2019-05-22T07:02:44.231Z,31.37
2019-05-22T07:05:09.986Z,32.47
2019-05-22T07:07:40.737Z,32.23
2019-05-22T07:10:14.581Z,33.60
2019-05-22T07:12:50.520Z,32.73
2019-05-22T07:15:28.527Z,31.82
2019-05-22T07:17:59.573Z,33.13
2019-05-22T07:20:35.744Z,32.37
2019-05-22T07:23:08.712Z,32.53
2019-05-22T07:25:41.867Z,31.60
2019-05-22T07:28:15.915Z,32.03
2019-05-22T07:30:47.450Z,33.30
2019-05-22T07:33:18.955Z,31.60
2019-05-22T07:36:07.893Z,33.47
2019-05-22T07:38:27.040Z,32.50
2019-05-22T07:40:59.013Z,33.73
2019-05-22T07:43:28.914Z,33.10
2019-05-22T07:46:01.558Z,28.17
2019-05-22T07:48:31.864Z,32.57
2019-05-22T07:51:04.938Z,30.77
2019-05-22T07:53:35.632Z,32.45
2019-05-22T07:56:12.994Z,33.30
2019-05-22T07:58:49.986Z,33.27
2019-05-22T08:01:27.323Z,31.45
2019-05-22T08:04:01.382Z,33.40
2019-05-22T08:06:31.691Z,33.40
2019-05-22T08:09:04.313Z,35.97
2019-05-22T08:11:33.701Z,34.00
2019-05-22T08:14:03.921Z,33.58
2019-05-22T08:16:35.032Z,33.63
2019-05-22T08:19:05.243Z,33.33
2019-05-22T08:21:34.933Z,31.70
2019-05-22T08:24:05.971Z,33.60
2019-05-22T08:26:53.251Z,31.67
2019-05-22T08:29:07.925Z,30.10
2019-05-22T08:31:40.293Z,28.53
2019-05-22T08:34:13.419Z,30.33
2019-05-22T08:36:49.604Z,31.13
2019-05-22T08:39:19.324Z,29.60
2019-05-22T08:41:51.010Z,30.17
2019-05-22T08:44:21.022Z,29.43
2019-05-22T08:46:51.901Z,29.23
2019-05-22T08:49:21.834Z,29.12
2019-05-22T08:51:52.683Z,29.63
2019-05-22T08:54:25.130Z,30.75
2019-05-22T08:56:56.226Z,29.60
2019-05-22T08:59:26.164Z,29.63
2019-05-22T09:01:56.925Z,26.43
2019-05-22T09:04:29.402Z,24.80
2019-05-22T09:06:58.805Z,25.10
2019-05-22T09:09:33.447Z,24.40
2019-05-22T09:12:11.076Z,25.60
2019-05-22T09:14:44.506Z,26.00
2019-05-22T09:17:15.272Z,25.40
2019-05-22T09:19:44.782Z,25.00
2019-05-22T09:22:15.685Z,26.50
2019-05-22T09:24:47.914Z,25.85
2019-05-22T09:27:18.956Z,25.47
2019-05-22T09:29:48.488Z,25.07
2019-05-22T09:32:23.888Z,26.20
2019-05-22T09:34:54.823Z,27.60
2019-05-22T09:37:24.669Z,27.58
2019-05-22T09:39:55.291Z,26.23
2019-05-22T09:42:24.960Z,28.17
2019-05-22T09:44:56.378Z,26.23
2019-05-22T09:47:26.917Z,26.90
2019-05-22T09:49:56.938Z,29.50
2019-05-22T09:52:27.218Z,27.90
2019-05-22T09:54:57.834Z,28.63
2019-05-22T09:57:28.282Z,28.70
2019-05-22T09:59:57.957Z,29.37
2019-05-22T10:02:30.442Z,26.20
2019-05-22T10:04:59.893Z,27.40
2019-05-22T10:07:29.682Z,27.50
2019-05-22T10:09:59.114Z,28.12
2019-05-22T10:12:29.195Z,27.80
2019-05-22T10:14:58.918Z,26.10
2019-05-22T10:17:29.923Z,30.08
2019-05-22T10:20:00.088Z,28.60
2019-05-22T10:22:38.666Z,27.82
2019-05-22T10:25:16.317Z,27.15
2019-05-22T10:27:44.362Z,28.00
2019-05-22T10:30:17.578Z,28.65
2019-05-22T10:32:51.191Z,28.40
2019-05-22T10:35:27.640Z,27.52
2019-05-22T10:37:57.850Z,27.03
2019-05-22T10:40:29.977Z,26.70
2019-05-22T10:42:59.298Z,25.60
2019-05-22T10:45:30.340Z,25.15
2019-05-22T10:48:01.331Z,25.47
2019-05-22T10:50:35.005Z,27.60
2019-05-22T10:53:04.871Z,27.10
2019-05-22T10:55:37.490Z,27.02
2019-05-22T10:58:07.018Z,27.30
2019-05-22T11:00:36.510Z,28.33
2019-05-22T11:03:07.238Z,28.87
2019-05-22T11:05:37.995Z,25.87
2019-05-22T11:08:08.680Z,24.33
2019-05-22T11:10:39.915Z,24.83
2019-05-22T11:13:10.219Z,25.17
2019-05-22T11:15:40.861Z,25.60
2019-05-22T11:18:31.297Z,26.10
2019-05-22T11:21:08.168Z,26.70
2019-05-22T11:23:51.032Z,24.97
2019-05-22T11:26:10.916Z,25.50
2019-05-22T11:28:41.004Z,24.60
2019-05-22T11:31:11.983Z,25.63
2019-05-22T11:33:42.473Z,24.37
2019-05-22T11:36:13.227Z,24.13
2019-05-22T11:38:44.726Z,23.47
2019-05-22T11:41:16.348Z,21.83
2019-05-22T11:43:46.365Z,22.30
2019-05-22T11:46:18.085Z,22.00
2019-05-22T11:48:48.626Z,22.37
2019-05-22T11:51:21.012Z,21.93
2019-05-22T11:54:07.479Z,25.83
2019-05-22T11:56:25.851Z,24.00
2019-05-22T11:58:56.561Z,23.50
2019-05-22T12:01:26.033Z,23.20
2019-05-22T12:03:55.835Z,22.50
2019-05-22T12:06:31.210Z,25.30
2019-05-22T12:09:01.086Z,23.50
2019-05-22T12:11:32.144Z,24.00
2019-05-22T12:14:01.656Z,22.30
2019-05-22T12:16:33.906Z,22.40
2019-05-22T12:19:03.416Z,23.87
2019-05-22T12:21:33.168Z,23.55
2019-05-22T12:24:02.568Z,25.80
2019-05-22T12:26:32.369Z,23.37
2019-05-22T12:29:02.260Z,25.53
2019-05-22T12:31:33.035Z,27.02
2019-05-22T12:34:04.313Z,24.70
2019-05-22T12:36:35.185Z,26.73
2019-05-22T12:39:08.597Z,24.60
2019-05-22T12:41:39.557Z,22.90
2019-05-22T12:44:08.879Z,25.63
2019-05-22T12:46:39.584Z,26.30
2019-05-22T12:49:12.522Z,24.57
2019-05-22T12:51:42.150Z,25.07
2019-05-22T12:54:12.160Z,24.57
2019-05-22T12:56:42.091Z,26.23
2019-05-22T12:59:15.095Z,25.50
2019-05-22T13:01:45.903Z,26.40
2019-05-22T13:04:18.723Z,25.97
2019-05-22T13:06:48.404Z,24.98
2019-05-22T13:09:19.451Z,27.37
2019-05-22T13:11:49.969Z,26.50
2019-05-22T13:14:20.964Z,24.20
2019-05-22T13:16:50.952Z,23.73
2019-05-22T13:19:21.686Z,24.57
2019-05-22T13:21:53.940Z,23.57
2019-05-22T13:24:23.714Z,23.50
2019-05-22T13:26:55.258Z,25.25
2019-05-22T13:29:25.555Z,25.40
2019-05-22T13:31:56.618Z,25.40
2019-05-22T13:34:28.482Z,25.33
2019-05-22T13:36:59.387Z,26.50
2019-05-22T13:39:29.590Z,26.93
2019-05-22T13:41:59.584Z,27.53
2019-05-22T13:44:31.251Z,26.00
2019-05-22T13:47:02.127Z,27.00
2019-05-22T13:49:35.722Z,27.27
2019-05-22T13:52:07.553Z,27.07
2019-05-22T13:54:37.273Z,25.10
2019-05-22T13:57:07.442Z,26.90
2019-05-22T13:59:41.582Z,26.77
2019-05-22T14:02:11.793Z,26.63
2019-05-22T14:04:42.344Z,28.90
2019-05-22T14:07:12.213Z,26.83
2019-05-22T14:09:43.196Z,27.33
2019-05-22T14:12:13.829Z,27.20
2019-05-22T14:14:44.168Z,26.23
2019-05-22T14:17:14.013Z,27.50
2019-05-22T14:19:43.860Z,27.37
2019-05-22T14:22:14.418Z,29.70
2019-05-22T14:24:44.418Z,28.50
2019-05-22T14:27:17.820Z,26.77
2019-05-22T14:29:47.871Z,27.97
2019-05-22T14:32:19.204Z,29.37
2019-05-22T14:34:50.150Z,28.30
2019-05-22T14:37:22.510Z,28.87
2019-05-22T14:39:52.226Z,28.60
2019-05-22T14:42:29.926Z,30.00
2019-05-22T14:44:57.597Z,28.67
2019-05-22T14:47:27.662Z,27.73
2019-05-22T14:49:58.229Z,28.23
2019-05-22T14:52:32.979Z,27.60
2019-05-22T14:55:03.064Z,28.70
2019-05-22T14:57:32.791Z,25.88
2019-05-22T15:00:02.275Z,27.20
2019-05-22T15:02:31.902Z,26.02
2019-05-22T15:05:02.653Z,27.77
2019-05-22T15:07:34.003Z,27.95
2019-05-22T15:10:03.605Z,26.63
2019-05-22T15:12:34.125Z,28.77
2019-05-22T15:15:03.833Z,25.27
2019-05-22T15:17:33.460Z,26.60
2019-05-22T15:20:03.989Z,24.87
2019-05-22T15:22:37.622Z,25.52
2019-05-22T15:25:08.649Z,25.20
2019-05-22T15:27:39.185Z,26.02
2019-05-22T15:30:10.608Z,26.60
2019-05-22T15:32:40.580Z,25.80
2019-05-22T15:35:12.089Z,24.97
2019-05-22T15:37:43.870Z,25.00
2019-05-22T15:40:14.597Z,24.43
2019-05-22T15:42:45.861Z,25.23
2019-05-22T15:45:19.848Z,26.00
2019-05-22T15:47:55.422Z,23.07
2019-05-22T15:50:26.817Z,25.62
2019-05-22T15:53:01.349Z,25.70
2019-05-22T15:55:33.453Z,23.77
2019-05-22T15:58:05.413Z,22.80
2019-05-22T16:00:38.930Z,23.32
2019-05-22T16:03:11.902Z,21.23
2019-05-22T16:05:43.841Z,19.50
2019-05-22T16:08:16.467Z,18.63
2019-05-22T16:10:48.505Z,17.83
2019-05-22T16:13:22.913Z,18.67
2019-05-22T16:15:54.796Z,19.13
2019-05-22T16:18:31.674Z,17.80
2019-05-22T16:21:04.319Z,17.00
2019-05-22T16:23:37.262Z,17.33
2019-05-22T16:26:07.962Z,15.70
2019-05-22T16:28:40.855Z,15.00
2019-05-22T16:31:12.602Z,15.40
2019-05-22T16:33:46.553Z,14.93
2019-05-22T16:36:21.190Z,14.60
2019-05-22T16:38:52.494Z,15.30
2019-05-22T16:41:24.831Z,15.13
2019-05-22T16:43:55.520Z,16.20
2019-05-22T16:46:27.427Z,14.85
2019-05-22T16:48:58.267Z,14.60
2019-05-22T16:51:38.565Z,14.77
2019-05-22T16:54:09.797Z,15.23
2019-05-22T16:56:41.746Z,14.50
2019-05-22T16:59:13.438Z,13.50
2019-05-22T17:01:57.485Z,15.23
2019-05-22T17:04:17.232Z,13.93
2019-05-22T17:06:47.094Z,13.90
2019-05-22T17:09:19.171Z,12.40
2019-05-22T17:11:50.257Z,12.07
2019-05-22T17:14:22.008Z,12.40
2019-05-22T17:16:52.555Z,10.93
2019-05-22T17:19:27.579Z,11.83
2019-05-22T17:21:57.307Z,11.43
2019-05-22T17:24:34.015Z,11.50
2019-05-22T17:27:08.205Z,11.50
2019-05-22T17:29:38.398Z,11.83
2019-05-22T17:32:11.144Z,11.87
2019-05-22T17:34:45.267Z,12.30
2019-05-22T17:37:22.363Z,10.98
2019-05-22T17:39:52.479Z,12.00
2019-05-22T17:42:25.436Z,12.13
2019-05-22T17:44:57.210Z,13.23
2019-05-22T17:47:29.437Z,12.68
2019-05-22T17:50:01.987Z,13.50
2019-05-22T17:52:37.327Z,13.53
2019-05-22T17:55:12.083Z,13.47
2019-05-22T17:57:43.726Z,12.40
2019-05-22T18:00:23.636Z,11.82
2019-05-22T18:02:54.795Z,12.03
2019-05-22T18:05:25.822Z,11.33
2019-05-22T18:07:56.991Z,11.20
2019-05-22T18:10:26.649Z,12.03
2019-05-22T18:12:56.141Z,11.50
2019-05-22T18:15:26.883Z,12.73
2019-05-22T18:17:57.469Z,14.10
2019-05-22T18:20:41.803Z,14.38
2019-05-22T18:22:59.793Z,16.97
2019-05-22T18:25:31.379Z,21.23
2019-05-22T18:28:01.612Z,16.90
2019-05-22T18:30:32.590Z,17.13
2019-05-22T18:33:01.977Z,16.32
2019-05-22T18:35:35.504Z,12.87
2019-05-22T18:38:06.015Z,14.67
2019-05-22T18:40:35.613Z,14.30
2019-05-22T18:43:06.176Z,13.90
2019-05-22T18:45:37.331Z,15.40
2019-05-22T18:48:07.526Z,19.60
2019-05-22T18:50:40.513Z,18.95
2019-05-22T18:53:10.592Z,18.43
2019-05-22T18:55:41.096Z,16.40
2019-05-22T18:58:14.656Z,17.23
2019-05-22T19:00:48.483Z,18.87
2019-05-22T19:03:22.201Z,17.98
2019-05-22T19:05:51.769Z,15.20
2019-05-22T19:08:21.965Z,15.28
2019-05-22T19:10:51.401Z,14.40
2019-05-22T19:13:23.585Z,15.63
2019-05-22T19:15:54.516Z,14.80
2019-05-22T19:18:24.714Z,15.43
2019-05-22T19:20:55.298Z,13.00
2019-05-22T19:23:30.787Z,12.97
2019-05-22T19:26:00.214Z,13.08
2019-05-22T19:28:42.790Z,14.47
2019-05-22T19:31:08.534Z,14.23
2019-05-22T19:33:40.254Z,12.77
2019-05-22T19:36:12.659Z,14.60
2019-05-22T19:38:44.410Z,14.35
2019-05-22T19:41:18.973Z,14.20
2019-05-22T19:43:49.154Z,15.23
2019-05-22T19:46:19.562Z,15.10
2019-05-22T19:48:49.186Z,13.30
2019-05-22T19:51:20.163Z,13.27
2019-05-22T19:53:51.865Z,12.53
2019-05-22T19:56:23.933Z,13.25
2019-05-22T19:58:53.552Z,13.43
2019-05-22T20:01:23.318Z,16.93
2019-05-22T20:03:53.860Z,16.20
2019-05-22T20:06:24.331Z,16.80
2019-05-22T20:08:55.298Z,14.90
2019-05-22T20:11:26.312Z,14.70
2019-05-22T20:13:58.242Z,15.00
2019-05-22T20:16:33.145Z,15.03
2019-05-22T20:19:02.905Z,16.20
2019-05-22T20:21:32.375Z,14.73
2019-05-22T20:24:02.492Z,16.87
2019-05-22T20:26:31.988Z,15.33
2019-05-22T20:29:01.787Z,16.23
2019-05-22T20:31:31.900Z,16.00
2019-05-22T20:34:01.709Z,15.57
2019-05-22T20:36:40.725Z,14.80
2019-05-22T20:39:14.272Z,16.50
2019-05-22T20:41:44.613Z,15.53
2019-05-22T20:44:15.523Z,15.13
2019-05-22T20:46:46.719Z,15.33
2019-05-22T20:49:24.045Z,15.70
2019-05-22T20:51:54.943Z,14.83
2019-05-22T20:54:25.304Z,15.00
2019-05-22T20:56:59.436Z,16.73
2019-05-22T20:59:32.129Z,17.17
2019-05-22T21:02:07.286Z,16.63
2019-05-22T21:04:43.683Z,15.90
2019-05-22T21:07:13.752Z,16.90
2019-05-22T21:09:46.081Z,16.60
2019-05-22T21:12:20.315Z,16.85
2019-05-22T21:14:49.953Z,16.97
2019-05-22T21:17:20.108Z,17.77
2019-05-22T21:19:53.274Z,16.90
2019-05-22T21:22:25.587Z,16.07
2019-05-22T21:24:55.913Z,17.87
2019-05-22T21:27:30.039Z,17.40
2019-05-22T21:29:59.705Z,16.60
2019-05-22T21:32:29.222Z,17.93
2019-05-22T21:34:58.916Z,18.67
2019-05-22T21:37:33.579Z,17.10
2019-05-22T21:40:04.953Z,17.50
2019-05-22T21:42:44.815Z,18.35
2019-05-22T21:45:19.155Z,20.35
2019-05-22T21:47:51.199Z,22.07
2019-05-22T21:50:25.518Z,22.13
2019-05-22T21:52:54.892Z,22.57
2019-05-22T21:55:30.621Z,22.60
2019-05-22T21:58:02.970Z,22.55
2019-05-22T22:00:53.651Z,21.77
2019-05-22T22:03:27.245Z,22.32
2019-05-22T22:05:58.116Z,22.90
2019-05-22T22:08:27.857Z,23.17
2019-05-22T22:10:57.947Z,23.73
2019-05-22T22:13:30.092Z,24.83
2019-05-22T22:16:00.680Z,23.37
2019-05-22T22:18:31.330Z,24.23
2019-05-22T22:21:01.629Z,25.43
2019-05-22T22:23:33.656Z,25.40
2019-05-22T22:26:03.505Z,23.83
2019-05-22T22:28:32.885Z,25.03
2019-05-22T22:31:07.246Z,23.97
2019-05-22T22:33:36.983Z,23.70
2019-05-22T22:36:09.075Z,23.20
2019-05-22T22:38:39.719Z,24.70
2019-05-22T22:41:09.892Z,23.83
2019-05-22T22:43:40.888Z,25.83
2019-05-22T22:46:23.363Z,25.87
2019-05-22T22:48:56.920Z,24.03
2019-05-22T22:51:27.296Z,25.30
2019-05-22T22:53:59.510Z,26.20
2019-05-22T22:56:29.367Z,25.47
2019-05-22T22:58:59.356Z,26.43
2019-05-22T23:01:34.126Z,27.10
2019-05-22T23:04:05.780Z,25.10
2019-05-22T23:06:36.476Z,24.37
2019-05-22T23:09:08.342Z,25.20
2019-05-22T23:11:40.524Z,24.90
2019-05-22T23:14:10.715Z,26.20
2019-05-22T23:16:41.161Z,27.22
2019-05-22T23:19:32.041Z,26.33
2019-05-22T23:22:01.434Z,27.67
2019-05-22T23:24:30.952Z,27.83
2019-05-22T23:27:01.352Z,27.90
2019-05-22T23:29:32.827Z,25.10
2019-05-22T23:32:04.110Z,26.40
2019-05-22T23:34:33.868Z,25.30
2019-05-22T23:37:04.228Z,26.73
2019-05-22T23:39:33.725Z,26.93
2019-05-22T23:42:10.214Z,28.47
2019-05-22T23:44:41.321Z,27.37
2019-05-22T23:47:10.982Z,26.53
2019-05-22T23:49:41.372Z,28.63
2019-05-22T23:52:12.808Z,28.40
2019-05-22T23:54:45.888Z,28.63
2019-05-22T23:57:18.220Z,28.98
2019-05-22T23:59:53.172Z,28.77
